Aeroporto :
LOGIN :

Iscrizione | Disclaimer

   EN    FR    IT 

 










Sommario :    VFR   VFR Marginale   IFR   IFR Intensivo   IFR Molto Intensivo
Visibilità : 
Base nubi : 
>= 8 km
>= 3000ft
5 / 8 km
1000 / 3000 ft
1500m / 5 km
500 / 1000 ft
800 / 1500m
200 / 500 ft
< 800m
< 200 ft
Simboli :   Temporali  Nebbia  Neve Forte  Precipitazioni Forti  Vento > 20 kt
SIGMETs :   Varie  Temporali  Ghiacco  Turbolenza  Onda orograficha  Ceneri Vulcaniche







- Altitudine del aeroporto : 2096 ft
- Codice IATA : AUR
- Carte del aeroporto


LFLW - Aurillac

ULTIMO METAR :
  • 211730Z AUTO 26003KT CAVOK 13/M02 Q1029

METARs OBSOLETI :
  • 211700Z AUTO 31003KT CAVOK 16/M05 Q1028 NOSIG
  • 211630Z AUTO 31003KT CAVOK 17/M04 Q1028 NOSIG
  • 211600Z AUTO 30004KT 270V330 CAVOK 17/M06 Q1028 NOSIG
  • 211530Z AUTO 31003KT 280V350 CAVOK 17/M07 Q1028 NOSIG
  • 211500Z AUTO 30004KT 260V350 CAVOK 17/M04 Q1028 NOSIG

TAF TAF LFLW
Valido dal 21 a 15 ore il 22 a 00 ore UTC


211400Z 2115/2124 VRB03KT CAVOK
Nessun NOTAM noto per questo aeroporto.



MetMap, La meteo Aeronautica in un colpo d'occhio ! - Copyright ORBIFLY Dicembre 2007 - Disclaimer

ORBIFLY MET'MAP TEAM :

Programmazione e sviluppo : Alexandra Zaïnal
Concezione e sviluppo : Baudouin d'Aumeries
Co-Programmazione e sviluppo : Marc-Olivier Méhu
Supporto tecnico e logistico : Manuel Goepfert
Aiuto per la traduzione : Arnaldo La Scala

Contatto : metmap@orbifly.com




FONTI E CREDITI :

   NOAA